createdAt,value
2022-11-03T00:01:37.458Z,27.15
2022-11-03T00:04:08.078Z,18.85
2022-11-03T00:06:36.539Z,37.38
2022-11-03T00:09:07.217Z,70.22
2022-11-03T00:11:35.964Z,13.07
2022-11-03T00:14:04.689Z,13.15
2022-11-03T00:16:32.690Z,11.70
2022-11-03T00:19:00.636Z,22.42
2022-11-03T00:21:30.296Z,22.38
2022-11-03T00:23:58.507Z,15.70
2022-11-03T00:26:27.913Z,14.82
2022-11-03T00:28:57.466Z,41.70
2022-11-03T00:31:27.183Z,53.10
2022-11-03T00:33:56.179Z,26.40
2022-11-03T00:36:26.077Z,14.65
2022-11-03T00:38:56.097Z,22.30
2022-11-03T00:41:25.277Z,17.65
2022-11-03T00:43:54.165Z,17.70
2022-11-03T00:46:23.306Z,23.95
2022-11-03T00:48:51.350Z,15.10
2022-11-03T00:51:21.362Z,13.80
2022-11-03T00:53:51.759Z,60.55
2022-11-03T00:56:22.288Z,27.05
2022-11-03T00:58:51.376Z,20.83
2022-11-03T01:01:21.767Z,21.70
2022-11-03T01:04:05.339Z,22.10
2022-11-03T01:06:51.284Z,22.38
2022-11-03T01:09:20.312Z,16.50
2022-11-03T01:11:56.778Z,18.73
2022-11-03T01:14:26.407Z,22.17
2022-11-03T01:16:54.443Z,44.20
2022-11-03T01:19:22.725Z,21.52
2022-11-03T01:21:50.659Z,17.30
2022-11-03T01:24:18.711Z,14.98
2022-11-03T01:26:46.731Z,13.55
2022-11-03T01:29:16.267Z,14.90
2022-11-03T01:31:44.616Z,10.85
2022-11-03T01:34:16.457Z,17.35
2022-11-03T01:36:44.932Z,17.60
2022-11-03T01:39:13.663Z,14.00
2022-11-03T01:41:42.900Z,14.93
2022-11-03T01:44:30.818Z,11.88
2022-11-03T01:47:04.310Z,12.05
2022-11-03T01:49:36.961Z,16.48
2022-11-03T01:52:09.382Z,14.13
2022-11-03T01:54:38.970Z,12.88
2022-11-03T01:57:09.921Z,15.95
2022-11-03T01:59:40.016Z,14.70
2022-11-03T02:02:08.194Z,21.08
2022-11-03T02:04:37.049Z,25.90
2022-11-03T02:07:15.586Z,17.50
2022-11-03T02:09:43.560Z,12.57
2022-11-03T02:12:11.855Z,11.73
2022-11-03T02:14:46.131Z,15.60
2022-11-03T02:17:15.410Z,14.98
2022-11-03T02:19:46.450Z,12.10
2022-11-03T02:22:47.611Z,10.85
2022-11-03T02:25:20.413Z,11.77
2022-11-03T02:27:50.212Z,11.57
2022-11-03T02:30:18.310Z,13.52
2022-11-03T02:32:57.183Z,13.90
2022-11-03T02:35:32.217Z,16.75
2022-11-03T02:38:04.371Z,12.73
2022-11-03T02:40:35.383Z,12.82
2022-11-03T02:43:07.173Z,17.30
2022-11-03T02:45:35.845Z,12.70
2022-11-03T02:48:05.672Z,15.50
2022-11-03T02:50:35.503Z,12.02
2022-11-03T02:53:03.826Z,10.30
2022-11-03T02:55:39.190Z,10.05
2022-11-03T02:58:16.829Z,11.57
2022-11-03T03:00:50.046Z,8.80
2022-11-03T03:03:22.956Z,11.90
2022-11-03T03:05:53.999Z,10.60
2022-11-03T03:08:24.576Z,13.10
2022-11-03T03:10:54.009Z,21.63
2022-11-03T03:13:24.643Z,12.10
2022-11-03T03:16:05.473Z,13.70
2022-11-03T03:18:42.452Z,9.38
2022-11-03T03:21:16.207Z,15.32
2022-11-03T03:23:48.057Z,10.63
2022-11-03T03:26:21.269Z,13.45
2022-11-03T03:28:54.468Z,12.52
2022-11-03T03:31:25.454Z,9.05
2022-11-03T03:34:04.590Z,10.25
2022-11-03T03:36:40.836Z,20.55
2022-11-03T03:39:12.639Z,22.88
2022-11-03T03:41:41.644Z,18.38
2022-11-03T03:44:13.335Z,11.55
2022-11-03T03:46:46.991Z,14.18
2022-11-03T03:49:15.325Z,10.40
2022-11-03T03:51:44.041Z,12.70
2022-11-03T03:54:11.973Z,11.25
2022-11-03T03:56:44.589Z,7.65
2022-11-03T03:59:13.859Z,11.23
2022-11-03T04:01:41.945Z,9.43
2022-11-03T04:04:10.001Z,11.73
2022-11-03T04:06:37.951Z,16.05
2022-11-03T04:09:05.940Z,11.88
2022-11-03T04:11:47.794Z,11.00
2022-11-03T04:14:49.283Z,9.57
2022-11-03T04:17:39.151Z,8.82
2022-11-03T04:20:30.687Z,10.45
2022-11-03T04:22:58.700Z,12.35
2022-11-03T04:25:26.683Z,9.63
2022-11-03T04:27:54.650Z,10.73
2022-11-03T04:30:26.513Z,13.65
2022-11-03T04:32:55.418Z,8.95
2022-11-03T04:35:28.685Z,8.63
2022-11-03T04:38:00.596Z,9.27
2022-11-03T04:40:29.086Z,8.30
2022-11-03T04:42:57.193Z,9.20
2022-11-03T04:45:29.847Z,8.60
2022-11-03T04:48:00.841Z,8.63
2022-11-03T04:50:28.790Z,15.98
2022-11-03T04:52:58.780Z,11.88
2022-11-03T04:55:27.494Z,14.07
2022-11-03T04:57:59.204Z,13.90
2022-11-03T05:00:28.560Z,15.65
2022-11-03T05:02:56.830Z,14.02
2022-11-03T05:05:28.884Z,9.57
2022-11-03T05:07:59.382Z,10.15
2022-11-03T05:10:28.942Z,12.80
2022-11-03T05:12:58.551Z,12.93
2022-11-03T05:15:35.852Z,13.05
2022-11-03T05:18:18.695Z,11.80
2022-11-03T05:20:52.850Z,11.90
2022-11-03T05:23:23.598Z,19.35
2022-11-03T05:25:53.944Z,12.38
2022-11-03T05:28:26.222Z,15.32
2022-11-03T05:30:56.174Z,14.65
2022-11-03T05:33:28.971Z,16.63
2022-11-03T05:35:59.626Z,13.52
2022-11-03T05:38:33.376Z,14.93
2022-11-03T05:41:02.183Z,18.95
2022-11-03T05:43:30.732Z,10.38
2022-11-03T05:46:03.526Z,11.85
2022-11-03T05:48:35.181Z,14.60
2022-11-03T05:51:13.737Z,13.15
2022-11-03T05:53:43.354Z,14.90
2022-11-03T05:56:17.886Z,12.70
2022-11-03T05:58:47.337Z,15.82
2022-11-03T06:01:20.958Z,14.15
2022-11-03T06:03:51.206Z,12.40
2022-11-03T06:06:26.915Z,12.05
2022-11-03T06:09:00.248Z,15.63
2022-11-03T06:11:32.424Z,13.68
2022-11-03T06:14:00.725Z,10.80
2022-11-03T06:16:39.840Z,11.38
2022-11-03T06:19:19.810Z,17.35
2022-11-03T06:21:49.662Z,12.75
2022-11-03T06:24:19.777Z,10.77
2022-11-03T06:26:52.569Z,13.55
2022-11-03T06:29:22.072Z,11.13
2022-11-03T06:31:56.576Z,15.07
2022-11-03T06:34:38.241Z,14.48
2022-11-03T06:37:21.721Z,17.95
2022-11-03T06:39:50.443Z,23.38
2022-11-03T06:42:21.963Z,20.15
2022-11-03T06:44:52.048Z,17.40
2022-11-03T06:47:31.360Z,18.08
2022-11-03T06:50:00.856Z,19.10
2022-11-03T06:52:31.605Z,25.40
2022-11-03T06:55:17.463Z,17.95
2022-11-03T06:57:47.614Z,16.23
2022-11-03T07:00:40.377Z,24.67
2022-11-03T07:03:15.291Z,15.63
2022-11-03T07:05:45.104Z,20.40
2022-11-03T07:08:21.349Z,21.38
2022-11-03T07:10:50.415Z,16.25
2022-11-03T07:13:23.606Z,16.83
2022-11-03T07:15:51.996Z,15.30
2022-11-03T07:18:24.817Z,13.57
2022-11-03T07:20:53.962Z,16.48
2022-11-03T07:23:25.642Z,14.55
2022-11-03T07:25:55.443Z,16.33
2022-11-03T07:28:27.616Z,13.25
2022-11-03T07:30:55.560Z,18.30
2022-11-03T07:33:28.632Z,16.15
2022-11-03T07:36:14.895Z,13.60
2022-11-03T07:38:46.724Z,15.98
2022-11-03T07:41:19.363Z,17.10
2022-11-03T07:43:54.251Z,18.63
2022-11-03T07:46:23.722Z,21.20
2022-11-03T07:48:56.241Z,24.30
2022-11-03T07:51:27.359Z,23.27
2022-11-03T07:54:02.766Z,18.42
2022-11-03T07:56:36.441Z,22.13
2022-11-03T07:59:14.582Z,24.95
2022-11-03T08:01:44.720Z,23.83
2022-11-03T08:04:20.166Z,30.65
2022-11-03T08:06:48.329Z,25.15
2022-11-03T08:09:16.336Z,26.42
2022-11-03T08:11:44.553Z,28.05
2022-11-03T08:14:13.050Z,24.65
2022-11-03T08:16:41.548Z,33.17
2022-11-03T08:19:09.593Z,22.80
2022-11-03T08:21:39.005Z,19.10
2022-11-03T08:24:11.339Z,24.08
2022-11-03T08:26:39.274Z,24.27
2022-11-03T08:29:07.224Z,26.77
2022-11-03T08:31:35.300Z,29.75
2022-11-03T08:34:03.240Z,32.50
2022-11-03T08:36:31.202Z,25.52
2022-11-03T08:39:00.441Z,18.98
2022-11-03T08:41:28.551Z,20.70
2022-11-03T08:43:56.560Z,24.17
2022-11-03T08:46:24.724Z,16.95
2022-11-03T08:48:53.448Z,22.23
2022-11-03T08:51:22.857Z,19.40
2022-11-03T08:53:53.835Z,24.58
2022-11-03T08:56:23.361Z,24.10
2022-11-03T08:58:51.444Z,17.50
2022-11-03T09:01:19.469Z,18.80
2022-11-03T09:03:47.583Z,28.77
2022-11-03T09:06:15.792Z,20.50
2022-11-03T09:11:33.059Z,15.57
2022-11-03T09:14:01.043Z,16.40
2022-11-03T09:16:28.982Z,15.93
2022-11-03T09:18:56.904Z,12.82
2022-11-03T09:21:24.827Z,13.43
2022-11-03T09:23:52.747Z,13.32
2022-11-03T09:26:21.684Z,18.20
2022-11-03T09:28:50.968Z,12.18
2022-11-03T09:31:19.138Z,17.42
2022-11-03T09:33:47.193Z,12.40
2022-11-03T09:36:15.138Z,13.60
2022-11-03T09:38:43.057Z,12.43
2022-11-03T09:41:26.589Z,10.57
2022-11-03T09:44:05.102Z,9.38
2022-11-03T09:46:35.154Z,13.30
2022-11-03T09:49:05.458Z,13.55
2022-11-03T09:51:36.263Z,12.32
2022-11-03T09:54:06.453Z,13.05
2022-11-03T09:56:37.237Z,8.82
2022-11-03T09:59:15.247Z,10.05
2022-11-03T10:01:48.796Z,7.22
2022-11-03T10:04:17.964Z,9.32
2022-11-03T10:06:46.043Z,16.80
2022-11-03T10:09:20.580Z,10.07
2022-11-03T10:11:49.029Z,8.45
2022-11-03T10:14:20.013Z,8.00
2022-11-03T10:16:53.806Z,7.07
2022-11-03T10:19:21.933Z,7.90
2022-11-03T10:21:49.925Z,8.45
2022-11-03T10:24:17.927Z,11.68
2022-11-03T10:26:47.698Z,9.13
2022-11-03T10:29:22.729Z,8.30
2022-11-03T10:31:52.078Z,12.02
2022-11-03T10:34:28.728Z,8.15
2022-11-03T10:37:20.654Z,14.07
2022-11-03T10:39:49.651Z,8.63
2022-11-03T10:42:20.712Z,8.70
2022-11-03T10:44:54.837Z,6.50
2022-11-03T10:47:26.349Z,8.10
2022-11-03T10:49:56.002Z,6.03
2022-11-03T10:52:26.187Z,10.02
2022-11-03T10:54:55.790Z,9.20
2022-11-03T10:57:24.786Z,14.63
2022-11-03T10:59:55.497Z,8.60
2022-11-03T11:02:27.728Z,14.75
2022-11-03T11:05:00.698Z,6.45
2022-11-03T11:07:34.670Z,11.52
2022-11-03T11:10:08.244Z,10.98
2022-11-03T11:12:36.440Z,9.40
2022-11-03T11:15:36.529Z,7.55
2022-11-03T11:18:04.676Z,8.27
2022-11-03T11:20:37.953Z,7.63
2022-11-03T11:23:49.132Z,9.32
2022-11-03T11:26:30.563Z,11.48
2022-11-03T11:29:44.849Z,7.47
2022-11-03T11:32:51.640Z,11.50
2022-11-03T11:36:08.743Z,13.30
2022-11-03T11:38:56.241Z,9.18
2022-11-03T11:41:57.926Z,9.75
2022-11-03T11:44:58.104Z,12.65
2022-11-03T11:47:29.724Z,7.32
2022-11-03T11:50:23.549Z,4.55
2022-11-03T11:52:57.698Z,6.43
2022-11-03T11:55:39.386Z,6.40
2022-11-03T11:58:15.570Z,9.48
2022-11-03T12:01:01.765Z,9.77
2022-11-03T12:03:36.988Z,7.55
2022-11-03T12:06:05.504Z,9.43
2022-11-03T12:08:33.810Z,9.23
2022-11-03T12:11:05.263Z,5.88
2022-11-03T12:13:42.636Z,5.35
2022-11-03T12:16:10.749Z,5.80
2022-11-03T12:18:43.558Z,7.05
2022-11-03T12:21:35.460Z,4.18
2022-11-03T12:24:36.235Z,6.80
2022-11-03T12:27:17.875Z,5.90
2022-11-03T12:29:46.135Z,5.53
2022-11-03T12:32:32.331Z,4.97
2022-11-03T12:35:01.279Z,4.82
2022-11-03T12:37:29.234Z,5.10
2022-11-03T12:39:58.524Z,8.13
2022-11-03T12:42:26.764Z,4.53
2022-11-03T12:44:54.862Z,8.95
2022-11-03T12:47:22.895Z,4.40
2022-11-03T12:49:50.855Z,4.80
2022-11-03T12:52:18.794Z,10.05
2022-11-03T12:54:46.807Z,11.48
2022-11-03T12:57:17.702Z,4.47
2022-11-03T12:59:45.665Z,4.72
2022-11-03T13:02:13.714Z,6.00
2022-11-03T13:04:41.907Z,8.07
2022-11-03T13:07:10.073Z,9.05
2022-11-03T13:09:38.086Z,6.20
2022-11-03T13:12:25.412Z,7.95
2022-11-03T13:14:54.749Z,4.30
2022-11-03T13:17:22.693Z,8.35
2022-11-03T13:19:54.492Z,7.28
2022-11-03T13:22:22.932Z,3.70
2022-11-03T13:24:50.922Z,7.80
2022-11-03T13:27:18.887Z,5.95
2022-11-03T13:29:46.874Z,3.63
2022-11-03T13:32:16.245Z,6.50
2022-11-03T13:34:44.184Z,6.05
2022-11-03T13:37:12.134Z,7.05
2022-11-03T13:39:40.082Z,4.78
2022-11-03T13:42:07.988Z,6.10
2022-11-03T13:44:35.941Z,7.20
2022-11-03T13:47:04.510Z,5.68
2022-11-03T13:52:22.078Z,4.95
2022-11-03T14:00:27.784Z,6.63
2022-11-03T14:05:44.979Z,6.38
2022-11-03T14:08:12.869Z,5.50
2022-11-03T14:10:40.793Z,6.65
2022-11-03T14:13:08.539Z,7.75
2022-11-03T14:15:36.927Z,8.27
2022-11-03T14:18:05.079Z,11.45
2022-11-03T14:20:33.106Z,6.90
2022-11-03T14:23:02.350Z,9.68
2022-11-03T14:25:30.375Z,9.77
2022-11-03T14:27:58.365Z,9.35
2022-11-03T14:30:26.331Z,10.98
2022-11-03T14:32:59.365Z,12.75
2022-11-03T14:35:27.756Z,7.03
2022-11-03T14:37:55.715Z,8.93
2022-11-03T14:40:42.561Z,9.50
2022-11-03T14:43:10.844Z,9.02
2022-11-03T14:45:41.634Z,8.18
2022-11-03T14:48:10.776Z,8.57
2022-11-03T14:50:38.817Z,9.00
2022-11-03T14:53:06.801Z,10.85
2022-11-03T14:55:36.080Z,7.97
2022-11-03T14:58:04.285Z,8.85
2022-11-03T15:00:32.450Z,7.65
2022-11-03T15:03:00.959Z,9.80
2022-11-03T15:05:47.993Z,8.57
2022-11-03T15:08:17.952Z,7.47
2022-11-03T15:10:47.198Z,14.45
2022-11-03T15:13:15.176Z,9.68
2022-11-03T15:15:43.259Z,7.57
2022-11-03T15:18:11.531Z,5.10
2022-11-03T15:20:39.576Z,6.65
2022-11-03T15:25:57.965Z,7.68
2022-11-03T15:28:26.933Z,9.45
2022-11-03T15:30:56.809Z,11.68
2022-11-03T15:33:24.806Z,10.30
2022-11-03T15:35:52.822Z,9.68
2022-11-03T15:38:21.016Z,8.60
2022-11-03T15:40:49.209Z,14.23
2022-11-03T15:43:19.110Z,13.27
2022-11-03T15:45:47.054Z,8.35
2022-11-03T15:48:14.986Z,10.02
2022-11-03T15:50:42.954Z,9.00
2022-11-03T15:53:10.927Z,11.23
2022-11-03T15:55:38.894Z,15.32
2022-11-03T15:58:07.087Z,13.13
2022-11-03T16:00:36.897Z,15.93
2022-11-03T16:03:05.420Z,12.85
2022-11-03T16:05:33.522Z,15.00
2022-11-03T16:08:01.479Z,15.13
2022-11-03T16:10:29.457Z,17.88
2022-11-03T16:12:57.426Z,18.65
2022-11-03T16:15:25.456Z,20.60
2022-11-03T16:17:54.743Z,17.67
2022-11-03T16:20:22.655Z,11.63
2022-11-03T16:25:23.607Z,10.82
2022-11-03T16:27:51.638Z,11.85
2022-11-03T16:30:19.599Z,13.63
2022-11-03T16:32:50.318Z,16.45
2022-11-03T16:35:19.921Z,14.80
2022-11-03T16:37:48.009Z,15.52
2022-11-03T16:40:19.316Z,14.30
2022-11-03T16:42:47.897Z,10.10
2022-11-03T16:45:19.107Z,17.83
2022-11-03T16:47:47.653Z,19.35
2022-11-03T16:50:16.142Z,16.02
2022-11-03T16:52:45.640Z,15.52
2022-11-03T16:55:14.894Z,11.50
2022-11-03T16:57:43.569Z,19.55
2022-11-03T17:00:13.849Z,14.90
2022-11-03T17:02:42.372Z,13.18
2022-11-03T17:05:11.597Z,14.70
2022-11-03T17:07:39.750Z,14.50
2022-11-03T17:10:10.122Z,17.55
2022-11-03T17:12:38.165Z,22.40
2022-11-03T17:15:07.671Z,12.95
2022-11-03T17:17:35.639Z,12.77
2022-11-03T17:20:03.701Z,12.13
2022-11-03T17:22:31.648Z,15.88
2022-11-03T17:24:59.604Z,21.48
2022-11-03T17:27:33.132Z,18.00
2022-11-03T17:30:08.643Z,15.63
2022-11-03T17:32:38.462Z,13.85
2022-11-03T17:35:12.742Z,18.05
2022-11-03T17:37:40.769Z,19.75
2022-11-03T17:40:15.597Z,21.48
2022-11-03T17:42:45.713Z,18.70
2022-11-03T17:45:14.806Z,18.70
2022-11-03T17:47:43.754Z,19.25
2022-11-03T17:50:14.998Z,15.27
2022-11-03T17:52:43.851Z,22.52
2022-11-03T17:55:17.900Z,27.67
2022-11-03T17:57:48.048Z,22.15
2022-11-03T18:00:18.217Z,39.83
2022-11-03T18:02:48.650Z,25.42
2022-11-03T18:05:22.940Z,26.13
2022-11-03T18:07:52.795Z,12.90
2022-11-03T18:10:20.884Z,12.50
2022-11-03T18:13:09.666Z,25.77
2022-11-03T18:15:39.136Z,25.00
2022-11-03T18:18:16.173Z,33.45
2022-11-03T18:20:53.194Z,20.10
2022-11-03T18:23:23.043Z,17.25
2022-11-03T18:25:52.122Z,15.02
2022-11-03T18:28:21.543Z,16.85
2022-11-03T18:30:54.696Z,16.95
2022-11-03T18:33:25.883Z,23.92
2022-11-03T18:35:54.990Z,20.33
2022-11-03T18:38:24.792Z,25.73
2022-11-03T18:40:53.432Z,22.45
2022-11-03T18:43:25.009Z,17.48
2022-11-03T18:45:53.574Z,12.85
2022-11-03T18:48:21.913Z,18.70
2022-11-03T18:50:51.023Z,12.73
2022-11-03T18:53:21.572Z,16.00
2022-11-03T18:55:49.981Z,14.02
2022-11-03T18:58:20.780Z,19.48
2022-11-03T19:00:50.283Z,17.73
2022-11-03T19:03:23.386Z,16.73
2022-11-03T19:05:53.146Z,14.05
2022-11-03T19:08:24.818Z,13.80
2022-11-03T19:10:54.388Z,22.55
2022-11-03T19:13:28.254Z,18.33
2022-11-03T19:16:00.054Z,15.20
2022-11-03T19:18:32.136Z,16.77
2022-11-03T19:21:00.086Z,26.38
2022-11-03T19:23:28.345Z,14.82
2022-11-03T19:26:00.754Z,21.08
2022-11-03T19:28:34.283Z,14.73
2022-11-03T19:31:04.143Z,14.05
2022-11-03T19:33:32.405Z,17.42
2022-11-03T19:36:00.374Z,15.30
2022-11-03T19:38:30.743Z,13.18
2022-11-03T19:41:16.298Z,12.90
2022-11-03T19:43:44.544Z,15.07
2022-11-03T19:46:20.330Z,16.73
2022-11-03T19:48:48.541Z,14.00
2022-11-03T19:51:18.162Z,18.08
2022-11-03T19:53:47.329Z,16.55
2022-11-03T19:56:19.261Z,15.82
2022-11-03T19:58:49.415Z,20.48
2022-11-03T20:01:18.934Z,12.60
2022-11-03T20:03:49.006Z,13.77
2022-11-03T20:06:19.459Z,14.60
2022-11-03T20:08:48.235Z,15.98
2022-11-03T20:11:16.262Z,24.20
2022-11-03T20:13:44.618Z,40.50
2022-11-03T20:16:14.227Z,33.25
2022-11-03T20:18:44.262Z,18.83
2022-11-03T20:21:16.026Z,17.00
2022-11-03T20:23:45.179Z,16.42
2022-11-03T20:26:15.262Z,16.73
2022-11-03T20:28:43.346Z,16.52
2022-11-03T20:31:14.881Z,22.33
2022-11-03T20:33:44.237Z,16.23
2022-11-03T20:36:16.860Z,36.97
2022-11-03T20:38:50.262Z,35.38
2022-11-03T20:41:18.422Z,20.70
2022-11-03T20:43:47.935Z,18.23
2022-11-03T20:46:23.267Z,16.15
2022-11-03T20:48:55.275Z,16.95
2022-11-03T20:51:25.874Z,15.63
2022-11-03T20:53:55.629Z,23.42
2022-11-03T20:56:25.864Z,20.33
2022-11-03T20:58:54.038Z,26.95
2022-11-03T21:01:26.533Z,34.50
2022-11-03T21:04:00.333Z,30.88
2022-11-03T21:06:30.725Z,27.67
2022-11-03T21:08:59.310Z,17.70
2022-11-03T21:11:30.867Z,18.50
2022-11-03T21:14:02.066Z,15.73
2022-11-03T21:16:49.734Z,19.45
2022-11-03T21:19:38.690Z,21.35
2022-11-03T21:22:30.848Z,22.15
2022-11-03T21:25:02.673Z,13.40
2022-11-03T21:27:30.681Z,17.52
2022-11-03T21:29:59.996Z,19.00
2022-11-03T21:32:28.401Z,17.00
2022-11-03T21:34:58.637Z,18.77
2022-11-03T21:37:28.655Z,25.23
2022-11-03T21:39:58.081Z,26.23
2022-11-03T21:42:43.446Z,42.55
2022-11-03T21:45:12.561Z,34.58
2022-11-03T21:48:00.464Z,36.85
2022-11-03T21:50:28.754Z,32.88
2022-11-03T21:52:57.487Z,27.42
2022-11-03T21:55:25.829Z,32.45
2022-11-03T21:57:53.731Z,28.25
2022-11-03T22:00:21.823Z,30.52
2022-11-03T22:02:50.771Z,28.25
2022-11-03T22:05:18.675Z,25.65
2022-11-03T22:07:48.010Z,34.83
2022-11-03T22:10:16.080Z,24.60
2022-11-03T22:12:44.039Z,19.98
2022-11-03T22:15:29.664Z,18.90
2022-11-03T22:18:01.424Z,22.23
2022-11-03T22:20:46.838Z,21.58
2022-11-03T22:23:34.316Z,19.38
2022-11-03T22:26:16.470Z,16.08
2022-11-03T22:28:44.431Z,20.17
2022-11-03T22:31:29.878Z,15.13
2022-11-03T22:34:15.229Z,21.85
2022-11-03T22:36:43.167Z,20.10
2022-11-03T22:39:29.902Z,15.40
2022-11-03T22:42:15.406Z,18.08
2022-11-03T22:45:00.743Z,19.80
2022-11-03T22:47:31.859Z,18.88
2022-11-03T22:50:00.035Z,19.50
2022-11-03T22:52:28.074Z,20.10
2022-11-03T22:54:56.421Z,23.17
2022-11-03T22:57:24.627Z,18.83
2022-11-03T22:59:54.618Z,21.85
2022-11-03T23:02:22.665Z,21.10
2022-11-03T23:04:50.626Z,18.48
2022-11-03T23:07:22.439Z,25.98
2022-11-03T23:09:54.795Z,16.60
2022-11-03T23:12:24.522Z,20.92
2022-11-03T23:15:09.996Z,18.30
2022-11-03T23:17:51.915Z,18.70
2022-11-03T23:20:37.178Z,18.20
2022-11-03T23:23:06.495Z,16.30
2022-11-03T23:25:33.839Z,17.33
2022-11-03T23:28:04.267Z,16.77
2022-11-03T23:30:32.318Z,27.70
2022-11-03T23:33:01.619Z,19.05
2022-11-03T23:35:29.544Z,17.05
2022-11-03T23:37:59.737Z,16.77
2022-11-03T23:40:27.671Z,14.15
2022-11-03T23:42:55.686Z,15.85
2022-11-03T23:45:42.434Z,17.60
2022-11-03T23:48:27.831Z,18.45
2022-11-03T23:50:56.774Z,14.80
2022-11-03T23:53:24.744Z,16.77
2022-11-03T23:56:06.664Z,18.25
2022-11-03T23:58:34.676Z,18.45
